sensor_id;sensor_type;location;lat;lon;timestamp;P1;durP1;ratioP1;P2;durP2;ratioP2
46288;SDS011;63105;46.158;14.604;2023-03-04T00:00:55;36.75;;;22.80;;
46288;SDS011;63105;46.158;14.604;2023-03-04T00:03:20;35.70;;;22.77;;
46288;SDS011;63105;46.158;14.604;2023-03-04T00:05:46;34.40;;;21.42;;
46288;SDS011;63105;46.158;14.604;2023-03-04T00:08:11;35.00;;;21.67;;
46288;SDS011;63105;46.158;14.604;2023-03-04T00:10:36;34.65;;;20.85;;
46288;SDS011;63105;46.158;14.604;2023-03-04T00:13:02;39.25;;;23.25;;
46288;SDS011;63105;46.158;14.604;2023-03-04T00:15:27;38.35;;;22.90;;
46288;SDS011;63105;46.158;14.604;2023-03-04T00:17:52;36.65;;;22.40;;
46288;SDS011;63105;46.158;14.604;2023-03-04T00:20:17;38.72;;;23.13;;
46288;SDS011;63105;46.158;14.604;2023-03-04T00:22:43;38.70;;;22.98;;
46288;SDS011;63105;46.158;14.604;2023-03-04T00:25:08;37.17;;;21.65;;
46288;SDS011;63105;46.158;14.604;2023-03-04T00:27:33;39.17;;;22.92;;
46288;SDS011;63105;46.158;14.604;2023-03-04T00:29:58;36.92;;;21.80;;
46288;SDS011;63105;46.158;14.604;2023-03-04T00:32:24;35.35;;;21.35;;
46288;SDS011;63105;46.158;14.604;2023-03-04T00:34:49;36.85;;;21.63;;
46288;SDS011;63105;46.158;14.604;2023-03-04T00:37:14;36.05;;;21.00;;
46288;SDS011;63105;46.158;14.604;2023-03-04T00:39:39;37.92;;;21.48;;
46288;SDS011;63105;46.158;14.604;2023-03-04T00:42:05;37.25;;;21.80;;
46288;SDS011;63105;46.158;14.604;2023-03-04T00:44:30;35.10;;;21.08;;
46288;SDS011;63105;46.158;14.604;2023-03-04T00:46:55;34.58;;;20.58;;
46288;SDS011;63105;46.158;14.604;2023-03-04T00:49:20;33.78;;;20.20;;
46288;SDS011;63105;46.158;14.604;2023-03-04T00:51:46;33.30;;;19.67;;
46288;SDS011;63105;46.158;14.604;2023-03-04T00:54:11;34.30;;;20.10;;
46288;SDS011;63105;46.158;14.604;2023-03-04T00:56:36;33.88;;;20.48;;
46288;SDS011;63105;46.158;14.604;2023-03-04T00:59:01;34.92;;;19.83;;
46288;SDS011;63105;46.158;14.604;2023-03-04T01:01:27;33.28;;;19.98;;
46288;SDS011;63105;46.158;14.604;2023-03-04T01:03:52;31.15;;;19.00;;
46288;SDS011;63105;46.158;14.604;2023-03-04T01:06:17;35.22;;;20.75;;
46288;SDS011;63105;46.158;14.604;2023-03-04T01:08:42;35.83;;;20.38;;
46288;SDS011;63105;46.158;14.604;2023-03-04T01:11:08;31.20;;;18.67;;
46288;SDS011;63105;46.158;14.604;2023-03-04T01:13:33;32.67;;;19.77;;
46288;SDS011;63105;46.158;14.604;2023-03-04T01:15:58;32.08;;;19.40;;
46288;SDS011;63105;46.158;14.604;2023-03-04T01:18:23;31.58;;;19.35;;
46288;SDS011;63105;46.158;14.604;2023-03-04T01:20:49;34.72;;;19.75;;
46288;SDS011;63105;46.158;14.604;2023-03-04T01:23:15;31.23;;;19.20;;
46288;SDS011;63105;46.158;14.604;2023-03-04T01:25:40;32.88;;;20.05;;
46288;SDS011;63105;46.158;14.604;2023-03-04T01:28:05;30.58;;;18.92;;
46288;SDS011;63105;46.158;14.604;2023-03-04T01:30:30;33.83;;;20.23;;
46288;SDS011;63105;46.158;14.604;2023-03-04T01:32:56;32.10;;;18.75;;
46288;SDS011;63105;46.158;14.604;2023-03-04T01:35:21;30.55;;;18.63;;
46288;SDS011;63105;46.158;14.604;2023-03-04T01:37:46;37.15;;;21.23;;
46288;SDS011;63105;46.158;14.604;2023-03-04T01:40:12;39.50;;;22.58;;
46288;SDS011;63105;46.158;14.604;2023-03-04T01:42:37;39.13;;;22.52;;
46288;SDS011;63105;46.158;14.604;2023-03-04T01:45:02;37.47;;;22.45;;
46288;SDS011;63105;46.158;14.604;2023-03-04T01:47:28;36.47;;;21.45;;
46288;SDS011;63105;46.158;14.604;2023-03-04T01:49:55;32.22;;;19.42;;
46288;SDS011;63105;46.158;14.604;2023-03-04T01:52:21;34.13;;;19.48;;
46288;SDS011;63105;46.158;14.604;2023-03-04T01:54:47;31.48;;;17.75;;
46288;SDS011;63105;46.158;14.604;2023-03-04T01:57:14;31.20;;;18.38;;
46288;SDS011;63105;46.158;14.604;2023-03-04T01:59:40;30.95;;;17.73;;
46288;SDS011;63105;46.158;14.604;2023-03-04T02:02:05;31.65;;;18.08;;
46288;SDS011;63105;46.158;14.604;2023-03-04T02:04:31;29.92;;;18.27;;
46288;SDS011;63105;46.158;14.604;2023-03-04T02:06:58;30.40;;;18.20;;
46288;SDS011;63105;46.158;14.604;2023-03-04T02:09:24;33.13;;;18.58;;
46288;SDS011;63105;46.158;14.604;2023-03-04T02:11:50;28.83;;;18.05;;
46288;SDS011;63105;46.158;14.604;2023-03-04T02:14:16;28.63;;;17.67;;
46288;SDS011;63105;46.158;14.604;2023-03-04T02:16:42;29.55;;;18.20;;
46288;SDS011;63105;46.158;14.604;2023-03-04T02:21:48;28.48;;;16.85;;
46288;SDS011;63105;46.158;14.604;2023-03-04T02:24:18;29.00;;;18.00;;
46288;SDS011;63105;46.158;14.604;2023-03-04T02:26:44;31.02;;;18.15;;
46288;SDS011;63105;46.158;14.604;2023-03-04T02:29:11;30.90;;;17.90;;
46288;SDS011;63105;46.158;14.604;2023-03-04T02:31:37;30.02;;;17.92;;
46288;SDS011;63105;46.158;14.604;2023-03-04T02:34:05;31.75;;;17.95;;
46288;SDS011;63105;46.158;14.604;2023-03-04T02:36:31;30.70;;;18.50;;
46288;SDS011;63105;46.158;14.604;2023-03-04T02:39:04;28.83;;;17.50;;
46288;SDS011;63105;46.158;14.604;2023-03-04T02:41:31;28.17;;;17.20;;
46288;SDS011;63105;46.158;14.604;2023-03-04T02:43:56;30.27;;;18.70;;
46288;SDS011;63105;46.158;14.604;2023-03-04T02:46:22;28.85;;;17.55;;
46288;SDS011;63105;46.158;14.604;2023-03-04T02:48:48;28.85;;;18.10;;
46288;SDS011;63105;46.158;14.604;2023-03-04T02:51:13;32.47;;;19.08;;
46288;SDS011;63105;46.158;14.604;2023-03-04T02:53:38;31.02;;;17.85;;
46288;SDS011;63105;46.158;14.604;2023-03-04T02:56:04;31.55;;;19.60;;
46288;SDS011;63105;46.158;14.604;2023-03-04T02:58:29;30.80;;;19.45;;
46288;SDS011;63105;46.158;14.604;2023-03-04T03:00:54;31.92;;;19.17;;
46288;SDS011;63105;46.158;14.604;2023-03-04T03:03:19;29.95;;;19.00;;
46288;SDS011;63105;46.158;14.604;2023-03-04T03:05:45;32.28;;;19.70;;
46288;SDS011;63105;46.158;14.604;2023-03-04T03:08:10;31.83;;;19.25;;
46288;SDS011;63105;46.158;14.604;2023-03-04T03:10:35;32.17;;;19.10;;
46288;SDS011;63105;46.158;14.604;2023-03-04T03:13:00;32.17;;;19.25;;
46288;SDS011;63105;46.158;14.604;2023-03-04T03:15:26;33.40;;;19.75;;
46288;SDS011;63105;46.158;14.604;2023-03-04T03:17:51;33.65;;;20.23;;
46288;SDS011;63105;46.158;14.604;2023-03-04T03:20:17;33.80;;;20.65;;
46288;SDS011;63105;46.158;14.604;2023-03-04T03:22:42;30.83;;;19.65;;
46288;SDS011;63105;46.158;14.604;2023-03-04T03:25:08;32.60;;;19.35;;
46288;SDS011;63105;46.158;14.604;2023-03-04T03:27:34;31.58;;;19.20;;
46288;SDS011;63105;46.158;14.604;2023-03-04T03:30:00;33.08;;;20.38;;
46288;SDS011;63105;46.158;14.604;2023-03-04T03:32:25;31.05;;;18.85;;
46288;SDS011;63105;46.158;14.604;2023-03-04T03:34:50;30.67;;;18.77;;
46288;SDS011;63105;46.158;14.604;2023-03-04T03:37:15;30.25;;;18.67;;
46288;SDS011;63105;46.158;14.604;2023-03-04T03:39:41;34.70;;;19.55;;
46288;SDS011;63105;46.158;14.604;2023-03-04T03:42:06;33.03;;;20.27;;
46288;SDS011;63105;46.158;14.604;2023-03-04T03:44:31;30.05;;;19.10;;
46288;SDS011;63105;46.158;14.604;2023-03-04T03:46:56;32.05;;;19.90;;
46288;SDS011;63105;46.158;14.604;2023-03-04T03:49:22;30.02;;;18.90;;
46288;SDS011;63105;46.158;14.604;2023-03-04T03:51:47;31.83;;;19.02;;
46288;SDS011;63105;46.158;14.604;2023-03-04T03:54:12;28.73;;;18.00;;
46288;SDS011;63105;46.158;14.604;2023-03-04T03:56:38;33.92;;;20.50;;
46288;SDS011;63105;46.158;14.604;2023-03-04T03:59:03;32.78;;;19.80;;
46288;SDS011;63105;46.158;14.604;2023-03-04T04:01:28;32.55;;;20.30;;
46288;SDS011;63105;46.158;14.604;2023-03-04T04:03:53;32.55;;;20.08;;
46288;SDS011;63105;46.158;14.604;2023-03-04T04:06:19;28.27;;;18.33;;
46288;SDS011;63105;46.158;14.604;2023-03-04T04:08:44;30.45;;;18.25;;
46288;SDS011;63105;46.158;14.604;2023-03-04T04:11:09;30.20;;;18.23;;
46288;SDS011;63105;46.158;14.604;2023-03-04T04:13:35;27.63;;;17.30;;
46288;SDS011;63105;46.158;14.604;2023-03-04T04:16:00;26.48;;;16.80;;
46288;SDS011;63105;46.158;14.604;2023-03-04T04:18:25;28.42;;;17.40;;
46288;SDS011;63105;46.158;14.604;2023-03-04T04:20:51;28.58;;;18.55;;
46288;SDS011;63105;46.158;14.604;2023-03-04T04:23:16;28.80;;;18.30;;
46288;SDS011;63105;46.158;14.604;2023-03-04T04:25:41;27.42;;;16.88;;
46288;SDS011;63105;46.158;14.604;2023-03-04T04:28:07;29.42;;;18.33;;
46288;SDS011;63105;46.158;14.604;2023-03-04T04:30:32;26.58;;;17.55;;
46288;SDS011;63105;46.158;14.604;2023-03-04T04:32:57;27.15;;;18.35;;
46288;SDS011;63105;46.158;14.604;2023-03-04T04:35:25;27.27;;;17.30;;
46288;SDS011;63105;46.158;14.604;2023-03-04T04:37:50;29.63;;;18.75;;
46288;SDS011;63105;46.158;14.604;2023-03-04T04:40:16;28.13;;;17.27;;
46288;SDS011;63105;46.158;14.604;2023-03-04T04:42:41;28.15;;;17.48;;
46288;SDS011;63105;46.158;14.604;2023-03-04T04:45:06;29.20;;;18.60;;
46288;SDS011;63105;46.158;14.604;2023-03-04T04:47:32;26.30;;;16.83;;
46288;SDS011;63105;46.158;14.604;2023-03-04T04:49:57;26.23;;;17.25;;
46288;SDS011;63105;46.158;14.604;2023-03-04T04:52:22;27.50;;;17.38;;
46288;SDS011;63105;46.158;14.604;2023-03-04T04:54:47;29.05;;;18.02;;
46288;SDS011;63105;46.158;14.604;2023-03-04T04:57:13;28.45;;;16.83;;
46288;SDS011;63105;46.158;14.604;2023-03-04T04:59:38;27.38;;;16.75;;
46288;SDS011;63105;46.158;14.604;2023-03-04T05:02:03;28.70;;;17.70;;
46288;SDS011;63105;46.158;14.604;2023-03-04T05:04:28;26.52;;;17.15;;
46288;SDS011;63105;46.158;14.604;2023-03-04T05:06:54;25.65;;;16.23;;
46288;SDS011;63105;46.158;14.604;2023-03-04T05:09:19;26.00;;;15.75;;
46288;SDS011;63105;46.158;14.604;2023-03-04T05:11:46;26.23;;;16.27;;
46288;SDS011;63105;46.158;14.604;2023-03-04T05:14:12;28.38;;;17.38;;
46288;SDS011;63105;46.158;14.604;2023-03-04T05:16:37;26.98;;;16.98;;
46288;SDS011;63105;46.158;14.604;2023-03-04T05:19:02;26.83;;;17.52;;
46288;SDS011;63105;46.158;14.604;2023-03-04T05:21:28;24.20;;;15.65;;
46288;SDS011;63105;46.158;14.604;2023-03-04T05:23:53;25.15;;;15.80;;
46288;SDS011;63105;46.158;14.604;2023-03-04T05:26:18;26.38;;;16.95;;
46288;SDS011;63105;46.158;14.604;2023-03-04T05:28:44;27.90;;;17.08;;
46288;SDS011;63105;46.158;14.604;2023-03-04T05:31:09;25.27;;;15.93;;
46288;SDS011;63105;46.158;14.604;2023-03-04T05:33:35;25.52;;;16.05;;
46288;SDS011;63105;46.158;14.604;2023-03-04T05:36:00;26.48;;;15.77;;
46288;SDS011;63105;46.158;14.604;2023-03-04T05:38:26;26.20;;;16.27;;
46288;SDS011;63105;46.158;14.604;2023-03-04T05:40:58;27.02;;;16.23;;
46288;SDS011;63105;46.158;14.604;2023-03-04T05:43:24;23.52;;;15.30;;
46288;SDS011;63105;46.158;14.604;2023-03-04T05:45:49;25.50;;;15.73;;
46288;SDS011;63105;46.158;14.604;2023-03-04T05:48:14;24.17;;;15.38;;
46288;SDS011;63105;46.158;14.604;2023-03-04T05:50:40;24.67;;;15.60;;
46288;SDS011;63105;46.158;14.604;2023-03-04T05:53:05;26.05;;;16.40;;
46288;SDS011;63105;46.158;14.604;2023-03-04T05:55:30;26.52;;;16.27;;
46288;SDS011;63105;46.158;14.604;2023-03-04T05:57:56;27.00;;;16.30;;
46288;SDS011;63105;46.158;14.604;2023-03-04T06:00:21;25.63;;;16.20;;
46288;SDS011;63105;46.158;14.604;2023-03-04T06:02:54;23.90;;;15.75;;
46288;SDS011;63105;46.158;14.604;2023-03-04T06:05:19;25.48;;;16.17;;
46288;SDS011;63105;46.158;14.604;2023-03-04T06:07:45;24.10;;;15.52;;
46288;SDS011;63105;46.158;14.604;2023-03-04T06:10:13;23.83;;;15.20;;
46288;SDS011;63105;46.158;14.604;2023-03-04T06:12:39;23.33;;;15.18;;
46288;SDS011;63105;46.158;14.604;2023-03-04T06:15:04;24.27;;;15.18;;
46288;SDS011;63105;46.158;14.604;2023-03-04T06:17:31;23.90;;;15.07;;
46288;SDS011;63105;46.158;14.604;2023-03-04T06:19:56;23.58;;;14.82;;
46288;SDS011;63105;46.158;14.604;2023-03-04T06:22:21;22.38;;;14.57;;
46288;SDS011;63105;46.158;14.604;2023-03-04T06:24:46;22.98;;;14.82;;
46288;SDS011;63105;46.158;14.604;2023-03-04T06:27:11;23.40;;;15.20;;
46288;SDS011;63105;46.158;14.604;2023-03-04T06:29:37;24.38;;;15.75;;
46288;SDS011;63105;46.158;14.604;2023-03-04T06:32:02;26.98;;;16.60;;
46288;SDS011;63105;46.158;14.604;2023-03-04T06:34:28;32.40;;;19.48;;
46288;SDS011;63105;46.158;14.604;2023-03-04T06:36:54;29.33;;;18.40;;
46288;SDS011;63105;46.158;14.604;2023-03-04T06:39:19;26.73;;;16.45;;
46288;SDS011;63105;46.158;14.604;2023-03-04T06:41:44;25.08;;;15.43;;
46288;SDS011;63105;46.158;14.604;2023-03-04T06:44:10;25.00;;;15.95;;
46288;SDS011;63105;46.158;14.604;2023-03-04T06:46:35;26.38;;;16.50;;
46288;SDS011;63105;46.158;14.604;2023-03-04T06:49:00;27.63;;;17.52;;
46288;SDS011;63105;46.158;14.604;2023-03-04T06:51:26;26.83;;;16.90;;
46288;SDS011;63105;46.158;14.604;2023-03-04T06:53:51;34.55;;;21.02;;
46288;SDS011;63105;46.158;14.604;2023-03-04T06:56:16;30.10;;;19.13;;
46288;SDS011;63105;46.158;14.604;2023-03-04T06:58:42;34.67;;;20.48;;
46288;SDS011;63105;46.158;14.604;2023-03-04T07:01:11;26.45;;;17.35;;
46288;SDS011;63105;46.158;14.604;2023-03-04T07:03:37;25.05;;;16.02;;
46288;SDS011;63105;46.158;14.604;2023-03-04T07:06:02;25.85;;;15.80;;
46288;SDS011;63105;46.158;14.604;2023-03-04T07:08:27;25.05;;;15.30;;
46288;SDS011;63105;46.158;14.604;2023-03-04T07:10:53;24.27;;;14.95;;
46288;SDS011;63105;46.158;14.604;2023-03-04T07:13:18;23.60;;;14.82;;
46288;SDS011;63105;46.158;14.604;2023-03-04T07:15:43;24.60;;;15.18;;
46288;SDS011;63105;46.158;14.604;2023-03-04T07:18:08;26.17;;;16.38;;
46288;SDS011;63105;46.158;14.604;2023-03-04T07:20:34;23.58;;;14.68;;
46288;SDS011;63105;46.158;14.604;2023-03-04T07:22:59;22.83;;;13.95;;
46288;SDS011;63105;46.158;14.604;2023-03-04T07:25:24;22.55;;;14.38;;
46288;SDS011;63105;46.158;14.604;2023-03-04T07:27:49;25.67;;;16.50;;
46288;SDS011;63105;46.158;14.604;2023-03-04T07:30:15;28.63;;;17.52;;
46288;SDS011;63105;46.158;14.604;2023-03-04T07:32:40;27.65;;;17.27;;
46288;SDS011;63105;46.158;14.604;2023-03-04T07:35:05;24.65;;;15.43;;
46288;SDS011;63105;46.158;14.604;2023-03-04T07:37:31;23.65;;;15.00;;
46288;SDS011;63105;46.158;14.604;2023-03-04T07:39:56;23.30;;;14.30;;
46288;SDS011;63105;46.158;14.604;2023-03-04T07:42:21;22.42;;;14.77;;
46288;SDS011;63105;46.158;14.604;2023-03-04T07:44:46;23.63;;;13.40;;
46288;SDS011;63105;46.158;14.604;2023-03-04T07:47:12;29.75;;;18.02;;
46288;SDS011;63105;46.158;14.604;2023-03-04T07:49:37;25.80;;;16.08;;
46288;SDS011;63105;46.158;14.604;2023-03-04T07:52:03;23.90;;;14.93;;
46288;SDS011;63105;46.158;14.604;2023-03-04T07:54:28;26.20;;;16.95;;
46288;SDS011;63105;46.158;14.604;2023-03-04T07:56:54;26.15;;;17.55;;
46288;SDS011;63105;46.158;14.604;2023-03-04T07:59:19;25.25;;;16.02;;
46288;SDS011;63105;46.158;14.604;2023-03-04T08:01:44;25.38;;;15.48;;
46288;SDS011;63105;46.158;14.604;2023-03-04T08:04:09;26.00;;;15.93;;
46288;SDS011;63105;46.158;14.604;2023-03-04T08:06:35;26.15;;;15.70;;
46288;SDS011;63105;46.158;14.604;2023-03-04T08:09:04;25.25;;;15.70;;
46288;SDS011;63105;46.158;14.604;2023-03-04T08:11:30;29.13;;;17.30;;
46288;SDS011;63105;46.158;14.604;2023-03-04T08:13:56;27.00;;;16.15;;
46288;SDS011;63105;46.158;14.604;2023-03-04T08:16:22;21.75;;;14.02;;
46288;SDS011;63105;46.158;14.604;2023-03-04T08:18:48;23.23;;;14.00;;
46288;SDS011;63105;46.158;14.604;2023-03-04T08:21:15;26.10;;;15.93;;
46288;SDS011;63105;46.158;14.604;2023-03-04T08:23:43;24.85;;;15.13;;
46288;SDS011;63105;46.158;14.604;2023-03-04T08:26:10;23.10;;;13.82;;
46288;SDS011;63105;46.158;14.604;2023-03-04T08:28:36;20.75;;;13.30;;
46288;SDS011;63105;46.158;14.604;2023-03-04T08:31:02;22.33;;;13.63;;
46288;SDS011;63105;46.158;14.604;2023-03-04T08:33:27;21.15;;;13.85;;
46288;SDS011;63105;46.158;14.604;2023-03-04T08:35:52;21.33;;;13.60;;
46288;SDS011;63105;46.158;14.604;2023-03-04T08:38:18;23.85;;;14.13;;
46288;SDS011;63105;46.158;14.604;2023-03-04T08:40:43;20.58;;;13.45;;
46288;SDS011;63105;46.158;14.604;2023-03-04T08:43:08;23.70;;;14.13;;
46288;SDS011;63105;46.158;14.604;2023-03-04T08:45:34;20.02;;;13.68;;
46288;SDS011;63105;46.158;14.604;2023-03-04T08:47:59;22.27;;;14.05;;
46288;SDS011;63105;46.158;14.604;2023-03-04T08:50:24;23.08;;;14.25;;
46288;SDS011;63105;46.158;14.604;2023-03-04T08:52:51;23.85;;;14.32;;
46288;SDS011;63105;46.158;14.604;2023-03-04T08:55:16;24.75;;;15.10;;
46288;SDS011;63105;46.158;14.604;2023-03-04T08:57:42;21.67;;;14.23;;
46288;SDS011;63105;46.158;14.604;2023-03-04T09:00:07;23.25;;;14.05;;
46288;SDS011;63105;46.158;14.604;2023-03-04T09:02:32;22.20;;;14.45;;
46288;SDS011;63105;46.158;14.604;2023-03-04T09:04:58;21.38;;;13.93;;
46288;SDS011;63105;46.158;14.604;2023-03-04T09:07:23;21.85;;;13.93;;
46288;SDS011;63105;46.158;14.604;2023-03-04T09:09:48;23.73;;;14.85;;
46288;SDS011;63105;46.158;14.604;2023-03-04T09:12:13;22.45;;;13.93;;
46288;SDS011;63105;46.158;14.604;2023-03-04T09:14:39;23.05;;;14.32;;
46288;SDS011;63105;46.158;14.604;2023-03-04T09:17:04;24.25;;;14.60;;
46288;SDS011;63105;46.158;14.604;2023-03-04T09:19:30;24.77;;;15.52;;
46288;SDS011;63105;46.158;14.604;2023-03-04T09:21:55;28.55;;;17.42;;
46288;SDS011;63105;46.158;14.604;2023-03-04T09:24:21;27.08;;;17.90;;
46288;SDS011;63105;46.158;14.604;2023-03-04T09:26:50;24.38;;;15.20;;
46288;SDS011;63105;46.158;14.604;2023-03-04T09:29:16;41.92;;;27.80;;
46288;SDS011;63105;46.158;14.604;2023-03-04T09:31:41;36.35;;;21.38;;
46288;SDS011;63105;46.158;14.604;2023-03-04T09:34:06;35.85;;;21.95;;
46288;SDS011;63105;46.158;14.604;2023-03-04T09:36:32;37.33;;;23.80;;
46288;SDS011;63105;46.158;14.604;2023-03-04T09:39:00;40.13;;;24.25;;
46288;SDS011;63105;46.158;14.604;2023-03-04T09:41:33;34.10;;;20.75;;
46288;SDS011;63105;46.158;14.604;2023-03-04T09:44:00;29.42;;;18.17;;
46288;SDS011;63105;46.158;14.604;2023-03-04T09:46:35;23.17;;;15.90;;
46288;SDS011;63105;46.158;14.604;2023-03-04T09:49:02;24.70;;;15.93;;
46288;SDS011;63105;46.158;14.604;2023-03-04T09:54:09;25.30;;;15.98;;
46288;SDS011;63105;46.158;14.604;2023-03-04T09:56:36;22.90;;;14.75;;
46288;SDS011;63105;46.158;14.604;2023-03-04T09:59:08;26.10;;;16.73;;
46288;SDS011;63105;46.158;14.604;2023-03-04T10:04:19;27.33;;;17.27;;
46288;SDS011;63105;46.158;14.604;2023-03-04T10:06:49;31.50;;;19.77;;
46288;SDS011;63105;46.158;14.604;2023-03-04T10:09:28;27.88;;;17.33;;
46288;SDS011;63105;46.158;14.604;2023-03-04T10:12:03;27.23;;;17.45;;
46288;SDS011;63105;46.158;14.604;2023-03-04T10:19:51;31.85;;;19.70;;
46288;SDS011;63105;46.158;14.604;2023-03-04T10:22:19;33.80;;;21.45;;
46288;SDS011;63105;46.158;14.604;2023-03-04T10:24:46;35.97;;;22.90;;
46288;SDS011;63105;46.158;14.604;2023-03-04T10:27:12;38.38;;;23.27;;
46288;SDS011;63105;46.158;14.604;2023-03-04T10:29:39;35.67;;;22.55;;
46288;SDS011;63105;46.158;14.604;2023-03-04T10:32:04;30.88;;;20.08;;
46288;SDS011;63105;46.158;14.604;2023-03-04T10:34:30;29.17;;;18.42;;
46288;SDS011;63105;46.158;14.604;2023-03-04T10:36:57;26.33;;;17.65;;
46288;SDS011;63105;46.158;14.604;2023-03-04T10:39:30;25.70;;;17.15;;
46288;SDS011;63105;46.158;14.604;2023-03-04T10:42:00;25.15;;;16.38;;
46288;SDS011;63105;46.158;14.604;2023-03-04T10:44:26;24.90;;;16.45;;
46288;SDS011;63105;46.158;14.604;2023-03-04T10:46:53;26.00;;;17.27;;
46288;SDS011;63105;46.158;14.604;2023-03-04T10:49:19;26.80;;;17.35;;
46288;SDS011;63105;46.158;14.604;2023-03-04T10:51:45;27.55;;;18.10;;
46288;SDS011;63105;46.158;14.604;2023-03-04T10:54:25;26.42;;;16.48;;
46288;SDS011;63105;46.158;14.604;2023-03-04T10:56:55;28.58;;;18.17;;
46288;SDS011;63105;46.158;14.604;2023-03-04T11:02:24;29.17;;;18.58;;
46288;SDS011;63105;46.158;14.604;2023-03-04T11:04:50;30.02;;;19.73;;
46288;SDS011;63105;46.158;14.604;2023-03-04T11:07:17;28.25;;;18.95;;
46288;SDS011;63105;46.158;14.604;2023-03-04T11:09:43;32.13;;;19.40;;
46288;SDS011;63105;46.158;14.604;2023-03-04T11:12:10;32.88;;;20.50;;
46288;SDS011;63105;46.158;14.604;2023-03-04T11:14:40;34.97;;;22.38;;
46288;SDS011;63105;46.158;14.604;2023-03-04T11:17:26;33.72;;;21.98;;
46288;SDS011;63105;46.158;14.604;2023-03-04T11:20:10;29.70;;;19.73;;
46288;SDS011;63105;46.158;14.604;2023-03-04T11:22:36;31.67;;;20.45;;
46288;SDS011;63105;46.158;14.604;2023-03-04T11:25:04;28.17;;;19.15;;
46288;SDS011;63105;46.158;14.604;2023-03-04T11:30:02;27.60;;;17.92;;
46288;SDS011;63105;46.158;14.604;2023-03-04T11:32:33;28.35;;;18.63;;
46288;SDS011;63105;46.158;14.604;2023-03-04T11:37:39;33.95;;;22.23;;
46288;SDS011;63105;46.158;14.604;2023-03-04T11:40:07;29.13;;;19.75;;
46288;SDS011;63105;46.158;14.604;2023-03-04T11:42:51;28.70;;;18.42;;
46288;SDS011;63105;46.158;14.604;2023-03-04T11:45:21;30.65;;;19.52;;
46288;SDS011;63105;46.158;14.604;2023-03-04T12:24:03;25.52;;;17.00;;
46288;SDS011;63105;46.158;14.604;2023-03-04T12:29:15;23.08;;;16.00;;
46288;SDS011;63105;46.158;14.604;2023-03-04T12:31:44;28.00;;;18.75;;
46288;SDS011;63105;46.158;14.604;2023-03-04T12:46:26;28.67;;;20.13;;
46288;SDS011;63105;46.158;14.604;2023-03-04T12:51:35;35.00;;;21.85;;
46288;SDS011;63105;46.158;14.604;2023-03-04T12:54:10;29.60;;;19.63;;
46288;SDS011;63105;46.158;14.604;2023-03-04T12:56:49;26.52;;;18.52;;
46288;SDS011;63105;46.158;14.604;2023-03-04T12:59:17;28.20;;;19.55;;
46288;SDS011;63105;46.158;14.604;2023-03-04T13:07:06;28.33;;;19.23;;
46288;SDS011;63105;46.158;14.604;2023-03-04T13:09:33;28.48;;;18.80;;
46288;SDS011;63105;46.158;14.604;2023-03-04T13:12:18;24.80;;;17.02;;
46288;SDS011;63105;46.158;14.604;2023-03-04T13:17:47;29.63;;;19.27;;
46288;SDS011;63105;46.158;14.604;2023-03-04T13:22:45;28.27;;;19.42;;
46288;SDS011;63105;46.158;14.604;2023-03-04T13:38:54;35.17;;;23.00;;
46288;SDS011;63105;46.158;14.604;2023-03-04T13:41:14;31.63;;;21.77;;
46288;SDS011;63105;46.158;14.604;2023-03-04T13:43:41;27.35;;;18.95;;
46288;SDS011;63105;46.158;14.604;2023-03-04T13:53:51;25.17;;;17.65;;
46288;SDS011;63105;46.158;14.604;2023-03-04T13:58:47;26.95;;;17.52;;
46288;SDS011;63105;46.158;14.604;2023-03-04T14:01:26;25.00;;;17.98;;
46288;SDS011;63105;46.158;14.604;2023-03-04T14:03:52;24.58;;;17.02;;
46288;SDS011;63105;46.158;14.604;2023-03-04T14:08:43;25.17;;;16.15;;
46288;SDS011;63105;46.158;14.604;2023-03-04T14:11:12;26.50;;;18.27;;
46288;SDS011;63105;46.158;14.604;2023-03-04T14:13:38;25.50;;;18.52;;
46288;SDS011;63105;46.158;14.604;2023-03-04T14:16:03;23.85;;;17.02;;
46288;SDS011;63105;46.158;14.604;2023-03-04T14:18:29;23.13;;;15.57;;
46288;SDS011;63105;46.158;14.604;2023-03-04T14:20:54;24.20;;;16.70;;
46288;SDS011;63105;46.158;14.604;2023-03-04T14:23:30;21.90;;;15.63;;
46288;SDS011;63105;46.158;14.604;2023-03-04T14:26:03;20.73;;;14.23;;
46288;SDS011;63105;46.158;14.604;2023-03-04T14:28:28;21.20;;;14.02;;
46288;SDS011;63105;46.158;14.604;2023-03-04T14:30:54;23.52;;;15.90;;
46288;SDS011;63105;46.158;14.604;2023-03-04T14:33:24;23.45;;;15.85;;
46288;SDS011;63105;46.158;14.604;2023-03-04T14:35:50;23.65;;;16.33;;
46288;SDS011;63105;46.158;14.604;2023-03-04T14:41:17;21.33;;;15.35;;
46288;SDS011;63105;46.158;14.604;2023-03-04T14:44:06;22.13;;;14.52;;
46288;SDS011;63105;46.158;14.604;2023-03-04T14:46:29;24.02;;;17.27;;
46288;SDS011;63105;46.158;14.604;2023-03-04T14:48:55;26.55;;;17.27;;
46288;SDS011;63105;46.158;14.604;2023-03-04T14:51:28;24.58;;;16.02;;
46288;SDS011;63105;46.158;14.604;2023-03-04T14:53:54;28.50;;;17.48;;
46288;SDS011;63105;46.158;14.604;2023-03-04T14:56:25;27.10;;;16.98;;
46288;SDS011;63105;46.158;14.604;2023-03-04T14:58:52;23.48;;;16.23;;
46288;SDS011;63105;46.158;14.604;2023-03-04T15:01:21;24.25;;;16.92;;
46288;SDS011;63105;46.158;14.604;2023-03-04T15:06:23;22.60;;;16.30;;
46288;SDS011;63105;46.158;14.604;2023-03-04T15:08:55;24.88;;;17.45;;
46288;SDS011;63105;46.158;14.604;2023-03-04T15:11:22;28.95;;;19.30;;
46288;SDS011;63105;46.158;14.604;2023-03-04T15:13:49;23.98;;;17.10;;
46288;SDS011;63105;46.158;14.604;2023-03-04T15:16:16;24.10;;;16.50;;
46288;SDS011;63105;46.158;14.604;2023-03-04T15:23:44;22.40;;;16.17;;
46288;SDS011;63105;46.158;14.604;2023-03-04T15:26:09;24.80;;;16.75;;
46288;SDS011;63105;46.158;14.604;2023-03-04T15:28:36;25.52;;;17.70;;
46288;SDS011;63105;46.158;14.604;2023-03-04T15:31:02;29.25;;;20.13;;
46288;SDS011;63105;46.158;14.604;2023-03-04T15:33:27;23.55;;;17.20;;
46288;SDS011;63105;46.158;14.604;2023-03-04T15:35:54;29.80;;;20.27;;
46288;SDS011;63105;46.158;14.604;2023-03-04T15:38:20;24.95;;;17.65;;
46288;SDS011;63105;46.158;14.604;2023-03-04T15:40:46;23.75;;;17.00;;
46288;SDS011;63105;46.158;14.604;2023-03-04T15:43:16;21.67;;;15.73;;
46288;SDS011;63105;46.158;14.604;2023-03-04T15:45:41;22.77;;;15.70;;
46288;SDS011;63105;46.158;14.604;2023-03-04T15:48:09;26.00;;;17.15;;
46288;SDS011;63105;46.158;14.604;2023-03-04T15:50:35;27.38;;;18.83;;
46288;SDS011;63105;46.158;14.604;2023-03-04T15:53:01;28.23;;;19.85;;
46288;SDS011;63105;46.158;14.604;2023-03-04T15:55:27;26.30;;;17.45;;
46288;SDS011;63105;46.158;14.604;2023-03-04T15:57:54;23.95;;;16.65;;
46288;SDS011;63105;46.158;14.604;2023-03-04T16:00:20;28.27;;;17.77;;
46288;SDS011;63105;46.158;14.604;2023-03-04T16:02:45;25.20;;;16.55;;
46288;SDS011;63105;46.158;14.604;2023-03-04T16:05:11;30.20;;;19.13;;
46288;SDS011;63105;46.158;14.604;2023-03-04T16:07:37;27.55;;;18.10;;